Flight Track Log - Related Links

Times and Time Zones

All times are in EDT time to prevent confusion due to time zone crossing. See the N588AC flight status page for this flight to view local times or setup timezone preferences in your user account.

Time Position Orientation Groundspeed Altitude Reporting Facility
EDT Latitude Longitude Course Direction KTS MPH feet Rate Location/Type
Thu 03:51:55 PM 39.2833 -76.4333 243° Southwest 237 273 1,900  Level Potomac TRACON
Thu 03:52:55 PM 39.2833 -76.5333 270° West 266 306 3,100 1,636 Climbing Potomac TRACON
Thu 03:53:56 PM 39.3000 -76.6167 285° West 272 313 5,200 2,182 Climbing Potomac TRACON
Thu 03:54:56 PM 39.3000 -76.7333 270° West 290 334 7,500 1,636 Climbing Potomac TRACON
Thu 03:55:57 PM 39.3167 -76.8333 282° West 294 338 8,500 1,488 Climbing Potomac TRACON
Thu 03:56:57 PM 39.3167 -76.9500 270° West 307 353 10,500 1,736 Climbing Potomac TRACON
Thu 03:57:00 PM 39.0886 -76.7784 243° Southwest  Level FlightAware Approximate
Thu 03:57:58 PM 39.3000 -77.0500 258° West 318 366 12,000  Level Potomac TRACON
Thu 03:58:58 PM 39.2333 -77.1333 224° Southwest 323 372 13,300 1,350 Climbing Potomac TRACON
Thu 03:59:58 PM 39.1667 -77.2167 224° Southwest 330 380 14,700 1,438 Climbing Potomac TRACON
Thu 04:00:59 PM 39.1000 -77.2833 218° Southwest 323 372 16,200 1,488 Climbing Potomac TRACON
Thu 04:01:59 PM 39.0167 -77.3333 205° Southwest 317 365 17,700 1,289 Climbing Potomac TRACON
Thu 04:03:00 PM 38.9333 -77.4000 212° Southwest 330 380 18,800 1,096 Climbing Potomac TRACON
Thu 04:03:54 PM 38.8667 -77.4500 210° Southwest 334 384 19,800 650 Climbing Potomac TRACON
Thu 04:05:00 PM 38.7667 -77.5167 207° Southwest 360 414 20,100 75 Climbing Potomac TRACON
Thu 04:06:35 PM 38.6378 -77.6275 214° Southwest 378 435 20,000  Descending Washington Center
Thu 04:07:35 PM 38.5553 -77.6944 212° Southwest 373 429 20,100  Climbing Washington Center
Thu 04:08:36 PM 38.4786 -77.7744 219° Southwest 362 417 20,000 -50 Descending Washington Center
Thu 04:09:36 PM 38.4267 -77.8817 238° Southwest 346 398 20,000  Level Washington Center
Thu 04:10:34 PM 38.3703 -77.9883 236° Southwest 359 413 20,000  Level Washington Center
Thu 04:11:35 PM 38.3161 -78.0925 236° Southwest 364 419 20,000  Level Washington Center
Thu 04:12:36 PM 38.2617 -78.1992 237° Southwest 364 419 20,000  Level Washington Center
Thu 04:13:34 PM 38.2072 -78.3003 236° Southwest 364 419 20,000  Level Washington Center
Thu 04:14:35 PM 38.1528 -78.4039 236° Southwest 364 419 20,000  Level Washington Center
Thu 04:15:35 PM 38.1064 -78.5103 241° Southwest 364 419 20,000  Level Washington Center
Thu 04:16:36 PM 38.0747 -78.6119 248° West 348 400 20,000 -400 Level Washington Center
Thu 04:17:35 PM 38.0319 -78.7394 247° West 354 407 19,200 -1,008 Descending Washington Center
Thu 04:18:35 PM 37.9911 -78.8564 246° West 360 414 18,000 -595 Descending Washington Center
Thu 04:19:36 PM 37.9506 -78.9731 246° West 360 414 18,000 -101 Level Washington Center
Thu 04:20:34 PM 37.9117 -79.0872 247° West 360 414 17,800 -403 Descending Washington Center
Thu 04:21:35 PM 37.8650 -79.1850 239° Southwest 360 414 17,200 -836 Descending Washington Center
Thu 04:22:36 PM 37.8097 -79.2900 236° Southwest 360 414 16,100 -1,008 Descending Washington Center
Thu 04:23:34 PM 37.7567 -79.3872 235° Southwest 355 409 15,200 -1,008 Descending Washington Center
Thu 04:24:35 PM 37.7081 -79.4717 234° Southwest 319 367 14,100 -1,140 Descending Washington Center
Thu 04:25:35 PM 37.6589 -79.5686 237° Southwest 307 353 12,900 -1,091 Descending Washington Center
Thu 04:26:36 PM 37.6189 -79.6453 237° Southwest 302 348 11,900 -1,041 Descending Washington Center
Thu 04:27:36 PM 37.5656 -79.7394 234° Southwest 297 342 10,800 -942 Descending Washington Center
Thu 04:28:37 PM 37.5094 -79.7914 216° Southwest 291 335 10,000 -403 Descending Washington Center
Thu 04:29:35 PM 37.4422 -79.8633 220° Southwest 290 334 10,000  Level Washington Center
Thu 04:30:35 PM 37.3797 -79.9228 217° Southwest 290 334 10,000 -496 Level Washington Center
Thu 04:31:36 PM 37.3189 -79.9844 219° Southwest 290 334 9,000 -1,311 Descending Washington Center
Thu 04:32:34 PM 37.2564 -80.0408 216° Southwest 290 334 7,400 -1,655 Descending Washington Center
Thu 04:34:00 PM 37.2353 -80.2007 233° Southwest  Level Estimated

Login

Don't have an account? Register now (free) for customized features, flight alerts, and more!